sensor_id;sensor_type;location;lat;lon;timestamp;P1;durP1;ratioP1;P2;durP2;ratioP2
21843;SDS011;11084;52.482;9.108;2022-09-14T00:01:08;5.90;;;1.27;;
21843;SDS011;11084;52.482;9.108;2022-09-14T00:03:37;4.40;;;1.10;;
21843;SDS011;11084;52.482;9.108;2022-09-14T00:06:07;4.33;;;1.30;;
21843;SDS011;11084;52.482;9.108;2022-09-14T00:08:36;5.73;;;1.30;;
21843;SDS011;11084;52.482;9.108;2022-09-14T00:11:13;4.10;;;1.00;;
21843;SDS011;11084;52.482;9.108;2022-09-14T00:13:41;3.50;;;0.87;;
21843;SDS011;11084;52.482;9.108;2022-09-14T00:16:16;9.33;;;1.33;;
21843;SDS011;11084;52.482;9.108;2022-09-14T00:19:04;2.63;;;1.00;;
21843;SDS011;11084;52.482;9.108;2022-09-14T00:21:37;4.73;;;1.30;;
21843;SDS011;11084;52.482;9.108;2022-09-14T00:24:04;2.80;;;1.23;;
21843;SDS011;11084;52.482;9.108;2022-09-14T00:26:31;3.80;;;1.00;;
21843;SDS011;11084;52.482;9.108;2022-09-14T00:28:58;8.53;;;1.40;;
21843;SDS011;11084;52.482;9.108;2022-09-14T00:31:28;1.30;;;1.20;;
21843;SDS011;11084;52.482;9.108;2022-09-14T00:33:57;7.27;;;1.70;;
21843;SDS011;11084;52.482;9.108;2022-09-14T00:36:24;5.00;;;1.30;;
21843;SDS011;11084;52.482;9.108;2022-09-14T00:38:53;1.93;;;1.30;;
21843;SDS011;11084;52.482;9.108;2022-09-14T00:41:26;5.90;;;1.30;;
21843;SDS011;11084;52.482;9.108;2022-09-14T00:46:45;4.50;;;1.10;;
21843;SDS011;11084;52.482;9.108;2022-09-14T00:49:15;3.57;;;1.50;;
21843;SDS011;11084;52.482;9.108;2022-09-14T00:51:57;13.00;;;1.87;;
21843;SDS011;11084;52.482;9.108;2022-09-14T00:54:34;3.80;;;1.03;;
21843;SDS011;11084;52.482;9.108;2022-09-14T00:57:06;3.93;;;1.43;;
21843;SDS011;11084;52.482;9.108;2022-09-14T00:59:34;9.83;;;1.87;;
21843;SDS011;11084;52.482;9.108;2022-09-14T01:02:03;8.40;;;1.50;;
21843;SDS011;11084;52.482;9.108;2022-09-14T01:04:33;3.10;;;1.37;;
21843;SDS011;11084;52.482;9.108;2022-09-14T01:15:41;6.03;;;1.20;;
21843;SDS011;11084;52.482;9.108;2022-09-14T01:18:39;7.20;;;1.30;;
21843;SDS011;11084;52.482;9.108;2022-09-14T01:38:10;6.83;;;1.30;;
21843;SDS011;11084;52.482;9.108;2022-09-14T01:40:48;3.30;;;1.30;;
21843;SDS011;11084;52.482;9.108;2022-09-14T01:43:24;4.10;;;1.13;;
21843;SDS011;11084;52.482;9.108;2022-09-14T01:46:04;2.93;;;1.40;;
21843;SDS011;11084;52.482;9.108;2022-09-14T01:48:50;9.50;;;2.00;;
21843;SDS011;11084;52.482;9.108;2022-09-14T01:54:16;2.93;;;1.03;;
21843;SDS011;11084;52.482;9.108;2022-09-14T01:59:37;3.40;;;1.23;;
21843;SDS011;11084;52.482;9.108;2022-09-14T02:07:18;5.57;;;1.50;;
21843;SDS011;11084;52.482;9.108;2022-09-14T02:09:45;1.53;;;1.27;;
21843;SDS011;11084;52.482;9.108;2022-09-14T02:12:13;6.77;;;1.10;;
21843;SDS011;11084;52.482;9.108;2022-09-14T02:14:40;2.40;;;1.10;;
21843;SDS011;11084;52.482;9.108;2022-09-14T02:17:08;3.10;;;1.60;;
21843;SDS011;11084;52.482;9.108;2022-09-14T02:19:36;4.10;;;1.40;;
21843;SDS011;11084;52.482;9.108;2022-09-14T02:22:24;3.50;;;1.70;;
21843;SDS011;11084;52.482;9.108;2022-09-14T02:24:52;6.10;;;1.10;;
21843;SDS011;11084;52.482;9.108;2022-09-14T02:27:19;4.13;;;1.20;;
21843;SDS011;11084;52.482;9.108;2022-09-14T02:29:45;10.33;;;1.37;;
21843;SDS011;11084;52.482;9.108;2022-09-14T02:38:24;5.53;;;1.77;;
21843;SDS011;11084;52.482;9.108;2022-09-14T02:41:14;3.93;;;1.70;;
21843;SDS011;11084;52.482;9.108;2022-09-14T02:44:39;2.97;;;1.20;;
21843;SDS011;11084;52.482;9.108;2022-09-14T02:50:21;2.70;;;1.47;;
21843;SDS011;11084;52.482;9.108;2022-09-14T02:53:12;2.47;;;1.20;;
21843;SDS011;11084;52.482;9.108;2022-09-14T02:55:45;6.40;;;1.47;;
21843;SDS011;11084;52.482;9.108;2022-09-14T02:58:16;8.70;;;1.63;;
21843;SDS011;11084;52.482;9.108;2022-09-14T03:00:47;6.47;;;1.23;;
21843;SDS011;11084;52.482;9.108;2022-09-14T03:03:16;4.60;;;1.80;;
21843;SDS011;11084;52.482;9.108;2022-09-14T03:05:45;11.30;;;1.50;;
21843;SDS011;11084;52.482;9.108;2022-09-14T03:08:11;3.90;;;1.50;;
21843;SDS011;11084;52.482;9.108;2022-09-14T03:10:40;2.93;;;1.30;;
21843;SDS011;11084;52.482;9.108;2022-09-14T03:13:10;4.73;;;1.83;;
21843;SDS011;11084;52.482;9.108;2022-09-14T03:15:36;1.80;;;1.10;;
21843;SDS011;11084;52.482;9.108;2022-09-14T03:18:04;5.97;;;1.20;;
21843;SDS011;11084;52.482;9.108;2022-09-14T03:20:31;1.90;;;1.30;;
21843;SDS011;11084;52.482;9.108;2022-09-14T03:22:58;3.90;;;1.40;;
21843;SDS011;11084;52.482;9.108;2022-09-14T03:25:25;2.67;;;1.27;;
21843;SDS011;11084;52.482;9.108;2022-09-14T03:27:53;7.70;;;1.70;;
21843;SDS011;11084;52.482;9.108;2022-09-14T03:30:23;3.77;;;1.33;;
21843;SDS011;11084;52.482;9.108;2022-09-14T03:32:50;3.73;;;1.80;;
21843;SDS011;11084;52.482;9.108;2022-09-14T03:35:17;3.50;;;1.40;;
21843;SDS011;11084;52.482;9.108;2022-09-14T03:37:43;4.93;;;1.40;;
21843;SDS011;11084;52.482;9.108;2022-09-14T03:40:11;6.07;;;1.47;;
21843;SDS011;11084;52.482;9.108;2022-09-14T03:42:43;4.90;;;1.60;;
21843;SDS011;11084;52.482;9.108;2022-09-14T03:45:12;7.10;;;1.40;;
21843;SDS011;11084;52.482;9.108;2022-09-14T03:47:39;11.23;;;1.70;;
21843;SDS011;11084;52.482;9.108;2022-09-14T03:50:07;10.83;;;1.77;;
21843;SDS011;11084;52.482;9.108;2022-09-14T03:52:35;4.70;;;1.13;;
21843;SDS011;11084;52.482;9.108;2022-09-14T03:55:03;3.03;;;1.60;;
21843;SDS011;11084;52.482;9.108;2022-09-14T03:57:31;4.07;;;1.40;;
21843;SDS011;11084;52.482;9.108;2022-09-14T03:59:59;4.40;;;1.63;;
21843;SDS011;11084;52.482;9.108;2022-09-14T04:02:26;6.33;;;1.23;;
21843;SDS011;11084;52.482;9.108;2022-09-14T04:04:53;3.03;;;1.43;;
21843;SDS011;11084;52.482;9.108;2022-09-14T04:07:20;5.07;;;1.47;;
21843;SDS011;11084;52.482;9.108;2022-09-14T04:09:46;13.10;;;1.77;;
21843;SDS011;11084;52.482;9.108;2022-09-14T04:12:12;12.33;;;1.97;;
21843;SDS011;11084;52.482;9.108;2022-09-14T04:14:38;10.83;;;1.40;;
21843;SDS011;11084;52.482;9.108;2022-09-14T04:17:04;7.97;;;1.80;;
21843;SDS011;11084;52.482;9.108;2022-09-14T04:19:31;9.23;;;1.67;;
21843;SDS011;11084;52.482;9.108;2022-09-14T04:21:59;6.73;;;1.60;;
21843;SDS011;11084;52.482;9.108;2022-09-14T04:24:25;2.87;;;1.40;;
21843;SDS011;11084;52.482;9.108;2022-09-14T04:26:51;3.13;;;1.37;;
21843;SDS011;11084;52.482;9.108;2022-09-14T04:29:17;7.93;;;1.60;;
21843;SDS011;11084;52.482;9.108;2022-09-14T04:31:43;6.43;;;1.37;;
21843;SDS011;11084;52.482;9.108;2022-09-14T04:34:10;4.60;;;1.60;;
21843;SDS011;11084;52.482;9.108;2022-09-14T04:36:38;16.10;;;1.70;;
21843;SDS011;11084;52.482;9.108;2022-09-14T04:39:04;5.70;;;1.47;;
21843;SDS011;11084;52.482;9.108;2022-09-14T04:41:31;6.13;;;1.77;;
21843;SDS011;11084;52.482;9.108;2022-09-14T04:44:00;9.77;;;1.60;;
21843;SDS011;11084;52.482;9.108;2022-09-14T04:46:30;4.07;;;1.40;;
21843;SDS011;11084;52.482;9.108;2022-09-14T04:49:01;1.40;;;1.30;;
21843;SDS011;11084;52.482;9.108;2022-09-14T04:51:28;2.97;;;1.60;;
21843;SDS011;11084;52.482;9.108;2022-09-14T04:53:58;7.87;;;1.97;;
21843;SDS011;11084;52.482;9.108;2022-09-14T04:56:27;2.83;;;1.20;;
21843;SDS011;11084;52.482;9.108;2022-09-14T04:58:57;5.70;;;2.00;;
21843;SDS011;11084;52.482;9.108;2022-09-14T05:01:27;7.67;;;1.50;;
21843;SDS011;11084;52.482;9.108;2022-09-14T05:03:55;2.83;;;1.50;;
21843;SDS011;11084;52.482;9.108;2022-09-14T05:06:22;11.53;;;1.67;;
21843;SDS011;11084;52.482;9.108;2022-09-14T05:08:51;9.10;;;1.90;;
21843;SDS011;11084;52.482;9.108;2022-09-14T05:11:20;2.53;;;1.60;;
21843;SDS011;11084;52.482;9.108;2022-09-14T05:13:48;3.27;;;1.60;;
21843;SDS011;11084;52.482;9.108;2022-09-14T05:16:19;3.17;;;1.63;;
21843;SDS011;11084;52.482;9.108;2022-09-14T05:18:49;3.73;;;1.87;;
21843;SDS011;11084;52.482;9.108;2022-09-14T05:21:19;1.43;;;1.30;;
21843;SDS011;11084;52.482;9.108;2022-09-14T05:23:46;3.80;;;1.50;;
21843;SDS011;11084;52.482;9.108;2022-09-14T05:26:13;4.03;;;2.17;;
21843;SDS011;11084;52.482;9.108;2022-09-14T05:28:39;7.27;;;2.03;;
21843;SDS011;11084;52.482;9.108;2022-09-14T05:31:07;4.87;;;1.80;;
21843;SDS011;11084;52.482;9.108;2022-09-14T05:33:35;6.70;;;1.93;;
21843;SDS011;11084;52.482;9.108;2022-09-14T05:36:02;8.20;;;1.70;;
21843;SDS011;11084;52.482;9.108;2022-09-14T05:38:31;2.90;;;1.80;;
21843;SDS011;11084;52.482;9.108;2022-09-14T05:40:59;4.50;;;1.70;;
21843;SDS011;11084;52.482;9.108;2022-09-14T05:43:26;2.17;;;1.67;;
21843;SDS011;11084;52.482;9.108;2022-09-14T05:45:53;4.90;;;2.30;;
21843;SDS011;11084;52.482;9.108;2022-09-14T05:48:20;6.37;;;1.97;;
21843;SDS011;11084;52.482;9.108;2022-09-14T05:50:46;2.63;;;1.70;;
21843;SDS011;11084;52.482;9.108;2022-09-14T05:53:12;11.27;;;2.10;;
21843;SDS011;11084;52.482;9.108;2022-09-14T05:55:38;3.10;;;1.90;;
21843;SDS011;11084;52.482;9.108;2022-09-14T05:58:04;5.80;;;1.93;;
21843;SDS011;11084;52.482;9.108;2022-09-14T06:00:30;7.63;;;2.07;;
21843;SDS011;11084;52.482;9.108;2022-09-14T06:02:56;13.63;;;2.03;;
21843;SDS011;11084;52.482;9.108;2022-09-14T06:05:23;4.10;;;2.37;;
21843;SDS011;11084;52.482;9.108;2022-09-14T06:07:52;7.30;;;2.20;;
21843;SDS011;11084;52.482;9.108;2022-09-14T06:10:19;3.23;;;1.73;;
21843;SDS011;11084;52.482;9.108;2022-09-14T06:12:46;5.70;;;2.40;;
21843;SDS011;11084;52.482;9.108;2022-09-14T06:15:12;5.07;;;2.03;;
21843;SDS011;11084;52.482;9.108;2022-09-14T06:17:39;10.70;;;2.20;;
21843;SDS011;11084;52.482;9.108;2022-09-14T06:20:05;11.90;;;2.03;;
21843;SDS011;11084;52.482;9.108;2022-09-14T06:22:32;5.93;;;2.30;;
21843;SDS011;11084;52.482;9.108;2022-09-14T06:24:58;8.07;;;2.00;;
21843;SDS011;11084;52.482;9.108;2022-09-14T06:27:25;10.47;;;2.43;;
21843;SDS011;11084;52.482;9.108;2022-09-14T06:29:51;3.67;;;2.27;;
21843;SDS011;11084;52.482;9.108;2022-09-14T06:32:18;7.40;;;2.33;;
21843;SDS011;11084;52.482;9.108;2022-09-14T06:34:49;4.77;;;2.23;;
21843;SDS011;11084;52.482;9.108;2022-09-14T06:37:15;7.60;;;2.10;;
21843;SDS011;11084;52.482;9.108;2022-09-14T06:39:41;8.17;;;2.70;;
21843;SDS011;11084;52.482;9.108;2022-09-14T06:42:07;6.63;;;2.53;;
21843;SDS011;11084;52.482;9.108;2022-09-14T06:44:37;6.00;;;2.07;;
21843;SDS011;11084;52.482;9.108;2022-09-14T06:47:04;3.10;;;2.03;;
21843;SDS011;11084;52.482;9.108;2022-09-14T06:49:30;4.10;;;2.27;;
21843;SDS011;11084;52.482;9.108;2022-09-14T06:51:57;9.17;;;3.20;;
21843;SDS011;11084;52.482;9.108;2022-09-14T06:54:25;14.13;;;3.20;;
21843;SDS011;11084;52.482;9.108;2022-09-14T06:56:51;9.87;;;3.10;;
21843;SDS011;11084;52.482;9.108;2022-09-14T06:59:17;8.07;;;2.80;;
21843;SDS011;11084;52.482;9.108;2022-09-14T07:01:44;8.17;;;2.57;;
21843;SDS011;11084;52.482;9.108;2022-09-14T07:04:14;3.47;;;2.37;;
21843;SDS011;11084;52.482;9.108;2022-09-14T07:06:41;14.57;;;3.37;;
21843;SDS011;11084;52.482;9.108;2022-09-14T07:09:10;17.77;;;2.80;;
21843;SDS011;11084;52.482;9.108;2022-09-14T07:11:37;6.10;;;2.50;;
21843;SDS011;11084;52.482;9.108;2022-09-14T07:14:04;5.97;;;2.40;;
21843;SDS011;11084;52.482;9.108;2022-09-14T07:16:32;5.10;;;2.83;;
21843;SDS011;11084;52.482;9.108;2022-09-14T07:19:04;9.37;;;2.40;;
21843;SDS011;11084;52.482;9.108;2022-09-14T07:21:34;5.93;;;2.33;;
21843;SDS011;11084;52.482;9.108;2022-09-14T07:24:00;8.47;;;2.73;;
21843;SDS011;11084;52.482;9.108;2022-09-14T07:26:31;6.17;;;2.07;;
21843;SDS011;11084;52.482;9.108;2022-09-14T07:29:04;5.50;;;2.07;;
21843;SDS011;11084;52.482;9.108;2022-09-14T07:31:35;11.07;;;3.37;;
21843;SDS011;11084;52.482;9.108;2022-09-14T07:34:06;5.87;;;2.37;;
21843;SDS011;11084;52.482;9.108;2022-09-14T07:36:33;14.03;;;2.60;;
21843;SDS011;11084;52.482;9.108;2022-09-14T07:39:03;4.03;;;2.30;;
21843;SDS011;11084;52.482;9.108;2022-09-14T07:41:32;4.47;;;2.20;;
21843;SDS011;11084;52.482;9.108;2022-09-14T07:44:00;7.97;;;2.20;;
21843;SDS011;11084;52.482;9.108;2022-09-14T07:46:30;7.17;;;2.43;;
21843;SDS011;11084;52.482;9.108;2022-09-14T07:49:05;3.70;;;2.00;;
21843;SDS011;11084;52.482;9.108;2022-09-14T07:51:33;6.73;;;2.50;;
21843;SDS011;11084;52.482;9.108;2022-09-14T07:54:01;2.47;;;1.87;;
21843;SDS011;11084;52.482;9.108;2022-09-14T07:56:28;13.93;;;2.10;;
21843;SDS011;11084;52.482;9.108;2022-09-14T07:58:55;10.37;;;2.30;;
21843;SDS011;11084;52.482;9.108;2022-09-14T08:01:23;8.03;;;2.20;;
21843;SDS011;11084;52.482;9.108;2022-09-14T08:03:50;13.30;;;2.03;;
21843;SDS011;11084;52.482;9.108;2022-09-14T08:06:20;7.67;;;2.00;;
21843;SDS011;11084;52.482;9.108;2022-09-14T08:08:50;11.43;;;2.03;;
21843;SDS011;11084;52.482;9.108;2022-09-14T08:11:28;7.60;;;2.30;;
21843;SDS011;11084;52.482;9.108;2022-09-14T08:13:56;5.87;;;2.17;;
21843;SDS011;11084;52.482;9.108;2022-09-14T08:16:25;5.83;;;1.90;;
21843;SDS011;11084;52.482;9.108;2022-09-14T08:18:54;11.60;;;2.47;;
21843;SDS011;11084;52.482;9.108;2022-09-14T08:21:23;7.30;;;2.30;;
21843;SDS011;11084;52.482;9.108;2022-09-14T08:23:49;6.73;;;1.70;;
21843;SDS011;11084;52.482;9.108;2022-09-14T08:26:17;9.90;;;1.80;;
21843;SDS011;11084;52.482;9.108;2022-09-14T08:28:46;13.67;;;2.17;;
21843;SDS011;11084;52.482;9.108;2022-09-14T08:31:15;8.83;;;1.80;;
21843;SDS011;11084;52.482;9.108;2022-09-14T08:33:50;7.53;;;1.70;;
21843;SDS011;11084;52.482;9.108;2022-09-14T08:36:19;7.37;;;1.60;;
21843;SDS011;11084;52.482;9.108;2022-09-14T08:38:46;4.63;;;1.83;;
21843;SDS011;11084;52.482;9.108;2022-09-14T08:47:27;11.40;;;1.93;;
21843;SDS011;11084;52.482;9.108;2022-09-14T08:50:00;8.40;;;1.70;;
21843;SDS011;11084;52.482;9.108;2022-09-14T08:58:05;9.23;;;2.13;;
21843;SDS011;11084;52.482;9.108;2022-09-14T09:00:50;5.63;;;1.50;;
21843;SDS011;11084;52.482;9.108;2022-09-14T09:09:51;5.73;;;1.10;;
21843;SDS011;11084;52.482;9.108;2022-09-14T09:12:22;6.57;;;1.20;;
21843;SDS011;11084;52.482;9.108;2022-09-14T09:21:45;4.43;;;0.80;;
21843;SDS011;11084;52.482;9.108;2022-09-14T09:24:04;3.40;;;0.80;;
21843;SDS011;11084;52.482;9.108;2022-09-14T09:26:49;6.93;;;0.90;;
21843;SDS011;11084;52.482;9.108;2022-09-14T09:29:15;4.77;;;1.10;;
21843;SDS011;11084;52.482;9.108;2022-09-14T09:32:00;9.10;;;1.23;;
21843;SDS011;11084;52.482;9.108;2022-09-14T09:34:39;7.73;;;1.17;;
21843;SDS011;11084;52.482;9.108;2022-09-14T09:37:21;3.90;;;1.00;;
21843;SDS011;11084;52.482;9.108;2022-09-14T09:39:48;6.07;;;1.00;;
21843;SDS011;11084;52.482;9.108;2022-09-14T09:44:58;3.80;;;1.07;;
21843;SDS011;11084;52.482;9.108;2022-09-14T09:47:33;7.20;;;1.10;;
21843;SDS011;11084;52.482;9.108;2022-09-14T09:50:24;3.20;;;0.83;;
21843;SDS011;11084;52.482;9.108;2022-09-14T09:52:54;4.70;;;1.07;;
21843;SDS011;11084;52.482;9.108;2022-09-14T09:55:24;9.83;;;1.00;;
21843;SDS011;11084;52.482;9.108;2022-09-14T09:58:25;9.00;;;1.30;;
21843;SDS011;11084;52.482;9.108;2022-09-14T10:00:57;10.50;;;1.17;;
21843;SDS011;11084;52.482;9.108;2022-09-14T10:03:35;4.60;;;1.10;;
21843;SDS011;11084;52.482;9.108;2022-09-14T10:06:04;4.40;;;1.03;;
21843;SDS011;11084;52.482;9.108;2022-09-14T10:08:40;5.77;;;0.80;;
21843;SDS011;11084;52.482;9.108;2022-09-14T10:14:05;11.07;;;1.37;;
21843;SDS011;11084;52.482;9.108;2022-09-14T10:16:50;3.90;;;1.27;;
21843;SDS011;11084;52.482;9.108;2022-09-14T10:19:21;6.83;;;1.10;;
21843;SDS011;11084;52.482;9.108;2022-09-14T10:22:36;10.50;;;1.13;;
21843;SDS011;11084;52.482;9.108;2022-09-14T10:27:46;3.67;;;0.90;;
21843;SDS011;11084;52.482;9.108;2022-09-14T10:30:24;1.90;;;0.70;;
21843;SDS011;11084;52.482;9.108;2022-09-14T10:33:03;2.43;;;0.67;;
21843;SDS011;11084;52.482;9.108;2022-09-14T10:41:03;8.27;;;1.57;;
21843;SDS011;11084;52.482;9.108;2022-09-14T10:46:51;6.90;;;1.20;;
21843;SDS011;11084;52.482;9.108;2022-09-14T10:53:07;3.60;;;0.83;;
21843;SDS011;11084;52.482;9.108;2022-09-14T11:05:35;8.33;;;0.90;;
21843;SDS011;11084;52.482;9.108;2022-09-14T11:08:28;3.40;;;1.20;;
21843;SDS011;11084;52.482;9.108;2022-09-14T11:24:43;6.87;;;1.70;;
21843;SDS011;11084;52.482;9.108;2022-09-14T11:27:30;5.33;;;1.03;;
21843;SDS011;11084;52.482;9.108;2022-09-14T11:35:36;14.00;;;2.07;;
21843;SDS011;11084;52.482;9.108;2022-09-14T11:38:18;9.57;;;1.40;;
21843;SDS011;11084;52.482;9.108;2022-09-14T11:46:09;8.43;;;1.47;;
21843;SDS011;11084;52.482;9.108;2022-09-14T11:49:16;3.10;;;0.63;;
21843;SDS011;11084;52.482;9.108;2022-09-14T11:52:07;6.57;;;0.83;;
21843;SDS011;11084;52.482;9.108;2022-09-14T11:54:47;3.50;;;0.70;;
21843;SDS011;11084;52.482;9.108;2022-09-14T11:57:20;5.00;;;0.80;;
21843;SDS011;11084;52.482;9.108;2022-09-14T11:59:53;6.67;;;1.63;;
21843;SDS011;11084;52.482;9.108;2022-09-14T12:07:56;5.27;;;0.90;;
21843;SDS011;11084;52.482;9.108;2022-09-14T12:10:26;5.57;;;1.43;;
21843;SDS011;11084;52.482;9.108;2022-09-14T12:41:58;1.57;;;0.57;;
21843;SDS011;11084;52.482;9.108;2022-09-14T12:49:57;4.07;;;0.83;;
21843;SDS011;11084;52.482;9.108;2022-09-14T12:52:54;2.53;;;0.93;;
21843;SDS011;11084;52.482;9.108;2022-09-14T13:01:04;9.10;;;0.80;;
21843;SDS011;11084;52.482;9.108;2022-09-14T13:04:00;3.20;;;0.90;;
21843;SDS011;11084;52.482;9.108;2022-09-14T13:07:03;12.37;;;1.23;;
21843;SDS011;11084;52.482;9.108;2022-09-14T13:09:24;3.97;;;0.97;;
21843;SDS011;11084;52.482;9.108;2022-09-14T13:12:05;2.83;;;0.70;;
21843;SDS011;11084;52.482;9.108;2022-09-14T13:14:37;7.97;;;1.30;;
21843;SDS011;11084;52.482;9.108;2022-09-14T13:17:18;11.20;;;1.10;;
21843;SDS011;11084;52.482;9.108;2022-09-14T13:19:58;11.70;;;1.10;;
21843;SDS011;11084;52.482;9.108;2022-09-14T13:22:29;3.97;;;0.80;;
21843;SDS011;11084;52.482;9.108;2022-09-14T13:25:00;6.77;;;1.20;;
21843;SDS011;11084;52.482;9.108;2022-09-14T13:27:30;6.53;;;0.90;;
21843;SDS011;11084;52.482;9.108;2022-09-14T13:32:27;8.07;;;1.53;;
21843;SDS011;11084;52.482;9.108;2022-09-14T13:34:55;4.00;;;0.90;;
21843;SDS011;11084;52.482;9.108;2022-09-14T13:37:22;7.70;;;1.03;;
21843;SDS011;11084;52.482;9.108;2022-09-14T13:39:53;7.77;;;1.20;;
21843;SDS011;11084;52.482;9.108;2022-09-14T13:42:21;5.17;;;1.07;;
21843;SDS011;11084;52.482;9.108;2022-09-14T13:44:49;2.87;;;1.17;;
21843;SDS011;11084;52.482;9.108;2022-09-14T13:47:20;9.23;;;1.10;;
21843;SDS011;11084;52.482;9.108;2022-09-14T13:49:48;5.33;;;1.10;;
21843;SDS011;11084;52.482;9.108;2022-09-14T13:55:15;3.60;;;1.10;;
21843;SDS011;11084;52.482;9.108;2022-09-14T13:57:38;6.93;;;1.20;;
21843;SDS011;11084;52.482;9.108;2022-09-14T14:00:18;4.90;;;0.83;;
21843;SDS011;11084;52.482;9.108;2022-09-14T14:02:51;3.80;;;1.07;;
21843;SDS011;11084;52.482;9.108;2022-09-14T14:05:39;8.03;;;1.20;;
21843;SDS011;11084;52.482;9.108;2022-09-14T14:08:27;6.03;;;0.90;;
21843;SDS011;11084;52.482;9.108;2022-09-14T14:11:02;3.00;;;0.73;;
21843;SDS011;11084;52.482;9.108;2022-09-14T14:13:34;5.83;;;0.87;;
21843;SDS011;11084;52.482;9.108;2022-09-14T14:16:12;4.70;;;1.30;;
21843;SDS011;11084;52.482;9.108;2022-09-14T14:23:50;5.93;;;1.07;;
21843;SDS011;11084;52.482;9.108;2022-09-14T14:26:20;5.43;;;1.40;;
21843;SDS011;11084;52.482;9.108;2022-09-14T14:28:51;4.00;;;0.77;;
21843;SDS011;11084;52.482;9.108;2022-09-14T14:31:19;4.70;;;1.37;;
21843;SDS011;11084;52.482;9.108;2022-09-14T14:33:48;13.07;;;1.30;;
21843;SDS011;11084;52.482;9.108;2022-09-14T14:36:16;1.80;;;0.77;;
21843;SDS011;11084;52.482;9.108;2022-09-14T14:38:43;3.27;;;0.77;;
21843;SDS011;11084;52.482;9.108;2022-09-14T14:41:15;9.57;;;1.20;;
21843;SDS011;11084;52.482;9.108;2022-09-14T14:43:44;10.70;;;1.20;;
21843;SDS011;11084;52.482;9.108;2022-09-14T14:46:11;2.83;;;0.90;;
21843;SDS011;11084;52.482;9.108;2022-09-14T14:48:39;4.77;;;1.03;;
21843;SDS011;11084;52.482;9.108;2022-09-14T14:51:05;3.83;;;0.70;;
21843;SDS011;11084;52.482;9.108;2022-09-14T14:53:36;7.57;;;1.00;;
21843;SDS011;11084;52.482;9.108;2022-09-14T14:56:02;4.00;;;1.03;;
21843;SDS011;11084;52.482;9.108;2022-09-14T14:58:28;2.03;;;0.73;;
21843;SDS011;11084;52.482;9.108;2022-09-14T15:00:53;8.47;;;1.23;;
21843;SDS011;11084;52.482;9.108;2022-09-14T15:03:20;8.20;;;1.20;;
21843;SDS011;11084;52.482;9.108;2022-09-14T15:05:46;4.97;;;0.97;;
21843;SDS011;11084;52.482;9.108;2022-09-14T15:08:14;4.87;;;0.93;;
21843;SDS011;11084;52.482;9.108;2022-09-14T15:10:44;16.53;;;1.20;;
21843;SDS011;11084;52.482;9.108;2022-09-14T15:13:10;5.17;;;0.83;;
21843;SDS011;11084;52.482;9.108;2022-09-14T15:15:38;5.87;;;1.00;;
21843;SDS011;11084;52.482;9.108;2022-09-14T15:18:07;11.63;;;0.97;;
21843;SDS011;11084;52.482;9.108;2022-09-14T15:20:35;10.63;;;1.00;;
21843;SDS011;11084;52.482;9.108;2022-09-14T15:23:01;2.97;;;0.87;;
21843;SDS011;11084;52.482;9.108;2022-09-14T15:25:28;3.03;;;1.10;;
21843;SDS011;11084;52.482;9.108;2022-09-14T15:27:55;4.03;;;0.87;;
21843;SDS011;11084;52.482;9.108;2022-09-14T15:30:22;8.77;;;1.10;;
21843;SDS011;11084;52.482;9.108;2022-09-14T15:32:48;4.13;;;0.90;;
21843;SDS011;11084;52.482;9.108;2022-09-14T15:35:15;8.60;;;1.10;;
21843;SDS011;11084;52.482;9.108;2022-09-14T15:37:42;6.47;;;0.90;;
21843;SDS011;11084;52.482;9.108;2022-09-14T15:40:10;4.40;;;1.07;;
21843;SDS011;11084;52.482;9.108;2022-09-14T15:42:36;5.03;;;1.10;;
21843;SDS011;11084;52.482;9.108;2022-09-14T15:45:03;7.50;;;1.00;;
21843;SDS011;11084;52.482;9.108;2022-09-14T15:47:30;1.77;;;0.37;;
21843;SDS011;11084;52.482;9.108;2022-09-14T15:49:56;6.60;;;0.80;;
21843;SDS011;11084;52.482;9.108;2022-09-14T15:52:23;7.70;;;1.00;;
21843;SDS011;11084;52.482;9.108;2022-09-14T15:54:49;9.60;;;1.03;;
21843;SDS011;11084;52.482;9.108;2022-09-14T15:57:15;7.40;;;1.03;;
21843;SDS011;11084;52.482;9.108;2022-09-14T15:59:41;3.20;;;0.77;;
21843;SDS011;11084;52.482;9.108;2022-09-14T16:02:08;4.93;;;0.87;;
21843;SDS011;11084;52.482;9.108;2022-09-14T16:04:36;6.40;;;1.20;;
21843;SDS011;11084;52.482;9.108;2022-09-14T16:07:03;5.27;;;0.90;;
21843;SDS011;11084;52.482;9.108;2022-09-14T16:09:34;2.43;;;0.77;;
21843;SDS011;11084;52.482;9.108;2022-09-14T16:12:05;10.50;;;1.23;;
21843;SDS011;11084;52.482;9.108;2022-09-14T16:14:33;10.93;;;1.03;;
21843;SDS011;11084;52.482;9.108;2022-09-14T16:17:00;4.37;;;1.03;;
21843;SDS011;11084;52.482;9.108;2022-09-14T16:19:26;3.97;;;0.80;;
21843;SDS011;11084;52.482;9.108;2022-09-14T16:21:53;1.87;;;1.03;;
21843;SDS011;11084;52.482;9.108;2022-09-14T16:24:19;5.80;;;1.27;;
21843;SDS011;11084;52.482;9.108;2022-09-14T16:26:46;6.10;;;1.03;;
21843;SDS011;11084;52.482;9.108;2022-09-14T16:29:13;5.20;;;1.17;;
21843;SDS011;11084;52.482;9.108;2022-09-14T16:31:42;1.83;;;0.97;;
21843;SDS011;11084;52.482;9.108;2022-09-14T16:34:13;9.73;;;1.80;;
21843;SDS011;11084;52.482;9.108;2022-09-14T16:36:53;5.57;;;1.60;;
21843;SDS011;11084;52.482;9.108;2022-09-14T16:39:20;3.77;;;0.97;;
21843;SDS011;11084;52.482;9.108;2022-09-14T16:41:49;3.00;;;0.87;;
21843;SDS011;11084;52.482;9.108;2022-09-14T16:44:17;9.60;;;1.20;;
21843;SDS011;11084;52.482;9.108;2022-09-14T16:46:46;2.93;;;0.90;;
21843;SDS011;11084;52.482;9.108;2022-09-14T16:49:13;4.20;;;1.20;;
21843;SDS011;11084;52.482;9.108;2022-09-14T16:51:42;3.33;;;1.13;;
21843;SDS011;11084;52.482;9.108;2022-09-14T16:54:09;3.33;;;0.87;;
21843;SDS011;11084;52.482;9.108;2022-09-14T16:56:39;4.17;;;1.20;;
21843;SDS011;11084;52.482;9.108;2022-09-14T16:59:05;3.10;;;1.03;;
21843;SDS011;11084;52.482;9.108;2022-09-14T17:01:33;5.50;;;2.13;;
21843;SDS011;11084;52.482;9.108;2022-09-14T17:04:05;6.87;;;1.17;;
21843;SDS011;11084;52.482;9.108;2022-09-14T17:06:34;6.40;;;1.30;;
21843;SDS011;11084;52.482;9.108;2022-09-14T17:09:06;3.63;;;1.03;;
21843;SDS011;11084;52.482;9.108;2022-09-14T17:11:36;6.57;;;1.13;;
21843;SDS011;11084;52.482;9.108;2022-09-14T17:14:04;6.37;;;1.10;;
21843;SDS011;11084;52.482;9.108;2022-09-14T17:16:31;5.67;;;1.30;;
21843;SDS011;11084;52.482;9.108;2022-09-14T17:18:58;4.83;;;0.83;;
21843;SDS011;11084;52.482;9.108;2022-09-14T17:21:27;5.03;;;1.13;;
21843;SDS011;11084;52.482;9.108;2022-09-14T17:23:57;4.40;;;1.03;;
21843;SDS011;11084;52.482;9.108;2022-09-14T17:26:26;10.53;;;1.53;;
21843;SDS011;11084;52.482;9.108;2022-09-14T17:28:55;4.10;;;1.40;;
21843;SDS011;11084;52.482;9.108;2022-09-14T17:31:24;3.80;;;1.60;;
21843;SDS011;11084;52.482;9.108;2022-09-14T17:33:53;8.50;;;1.40;;
21843;SDS011;11084;52.482;9.108;2022-09-14T17:36:21;6.07;;;1.07;;
21843;SDS011;11084;52.482;9.108;2022-09-14T17:38:47;7.00;;;1.30;;
21843;SDS011;11084;52.482;9.108;2022-09-14T17:41:18;5.10;;;1.00;;
21843;SDS011;11084;52.482;9.108;2022-09-14T17:43:53;9.57;;;1.23;;
21843;SDS011;11084;52.482;9.108;2022-09-14T17:46:22;7.87;;;1.63;;
21843;SDS011;11084;52.482;9.108;2022-09-14T17:48:49;5.97;;;1.27;;
21843;SDS011;11084;52.482;9.108;2022-09-14T17:51:18;11.70;;;1.47;;
21843;SDS011;11084;52.482;9.108;2022-09-14T17:53:47;7.83;;;1.43;;
21843;SDS011;11084;52.482;9.108;2022-09-14T17:56:17;5.90;;;1.30;;
21843;SDS011;11084;52.482;9.108;2022-09-14T17:58:45;9.70;;;1.33;;
21843;SDS011;11084;52.482;9.108;2022-09-14T18:01:17;6.40;;;1.50;;
21843;SDS011;11084;52.482;9.108;2022-09-14T18:03:52;5.80;;;1.10;;
21843;SDS011;11084;52.482;9.108;2022-09-14T18:06:22;4.50;;;1.30;;
21843;SDS011;11084;52.482;9.108;2022-09-14T18:08:56;11.63;;;1.80;;
21843;SDS011;11084;52.482;9.108;2022-09-14T18:11:29;8.17;;;1.50;;